createdAt,value
2017-08-24T00:01:12.624Z,11.57
2017-08-24T00:03:40.057Z,11.57
2017-08-24T00:06:07.492Z,12.30
2017-08-24T00:08:34.933Z,12.30
2017-08-24T00:11:02.370Z,11.07
2017-08-24T00:13:29.808Z,11.17
2017-08-24T00:15:57.341Z,10.77
2017-08-24T00:18:24.795Z,12.70
2017-08-24T00:20:52.227Z,11.97
2017-08-24T00:23:19.664Z,12.97
2017-08-24T00:25:47.106Z,10.83
2017-08-24T00:28:14.539Z,11.40
2017-08-24T00:30:41.972Z,11.50
2017-08-24T00:33:09.410Z,11.20
2017-08-24T00:35:36.855Z,12.00
2017-08-24T00:38:04.290Z,11.60
2017-08-24T00:40:32.732Z,12.70
2017-08-24T00:43:00.159Z,12.30
2017-08-24T00:45:28.568Z,11.10
2017-08-24T00:47:55.999Z,12.33
2017-08-24T00:50:23.431Z,12.50
2017-08-24T00:52:50.868Z,11.93
2017-08-24T00:55:18.437Z,10.80
2017-08-24T00:57:45.859Z,10.90
2017-08-24T01:00:13.288Z,11.53
2017-08-24T01:02:40.720Z,12.07
2017-08-24T01:05:08.856Z,11.00
2017-08-24T01:07:36.373Z,10.47
2017-08-24T01:10:03.862Z,11.40
2017-08-24T01:12:31.296Z,12.07
2017-08-24T01:14:58.734Z,10.53
2017-08-24T01:17:26.176Z,11.73
2017-08-24T01:19:53.617Z,12.63
2017-08-24T01:22:21.050Z,11.73
2017-08-24T01:24:48.605Z,12.30
2017-08-24T01:27:16.037Z,9.60
2017-08-24T01:29:43.559Z,9.77
2017-08-24T01:32:10.997Z,11.30
2017-08-24T01:34:38.436Z,9.97
2017-08-24T01:37:05.860Z,10.93
2017-08-24T01:39:33.322Z,10.57
2017-08-24T01:42:00.760Z,10.00
2017-08-24T01:44:28.209Z,11.23
2017-08-24T01:46:56.356Z,10.83
2017-08-24T01:49:23.791Z,9.90
2017-08-24T01:51:52.004Z,10.90
2017-08-24T01:54:19.447Z,10.23
2017-08-24T01:56:46.902Z,9.97
2017-08-24T01:59:14.334Z,10.30
2017-08-24T02:01:41.765Z,10.63
2017-08-24T02:04:09.196Z,9.40
2017-08-24T02:06:36.645Z,9.00
2017-08-24T02:09:04.084Z,10.87
2017-08-24T02:11:31.564Z,9.87
2017-08-24T02:13:58.991Z,9.53
2017-08-24T02:16:26.427Z,10.10
2017-08-24T02:18:53.866Z,9.83
2017-08-24T02:21:21.313Z,10.30
2017-08-24T02:23:49.447Z,9.97
2017-08-24T02:26:16.988Z,10.70
2017-08-24T02:28:44.427Z,10.67
2017-08-24T02:31:11.887Z,10.33
2017-08-24T02:33:39.316Z,11.93
2017-08-24T02:36:06.805Z,10.90
2017-08-24T02:38:34.236Z,12.17
2017-08-24T02:41:01.681Z,11.77
2017-08-24T02:43:29.119Z,12.00
2017-08-24T02:45:56.642Z,11.80
2017-08-24T02:48:24.077Z,11.77
2017-08-24T02:50:51.556Z,12.53
2017-08-24T02:53:18.984Z,12.20
2017-08-24T02:55:46.420Z,11.17
2017-08-24T02:58:13.854Z,10.93
2017-08-24T03:00:41.564Z,9.80
2017-08-24T03:03:09.066Z,10.27
2017-08-24T03:05:36.490Z,8.60
2017-08-24T03:08:03.929Z,11.00
2017-08-24T03:10:31.361Z,11.33
2017-08-24T03:12:58.791Z,12.93
2017-08-24T03:15:26.227Z,12.77
2017-08-24T03:17:53.664Z,12.90
2017-08-24T03:20:21.124Z,12.77
2017-08-24T03:22:48.592Z,15.07
2017-08-24T03:25:16.024Z,13.93
2017-08-24T03:27:43.464Z,13.37
2017-08-24T03:30:10.897Z,14.37
2017-08-24T03:32:38.335Z,12.70
2017-08-24T03:35:05.776Z,12.67
2017-08-24T03:37:33.210Z,12.00
2017-08-24T03:40:00.647Z,11.40
2017-08-24T03:42:28.091Z,11.80
2017-08-24T03:44:55.525Z,11.53
2017-08-24T03:47:23.984Z,11.80
2017-08-24T03:49:51.418Z,13.30
2017-08-24T03:52:18.868Z,12.40
2017-08-24T03:54:46.336Z,12.00
2017-08-24T03:57:13.816Z,13.47
2017-08-24T03:59:41.261Z,13.43
2017-08-24T04:02:08.699Z,14.43
2017-08-24T04:04:36.141Z,14.53
2017-08-24T04:07:04.665Z,14.87
2017-08-24T04:09:32.097Z,16.00
2017-08-24T04:11:59.536Z,14.07
2017-08-24T04:14:26.968Z,16.13
2017-08-24T04:16:54.404Z,15.27
2017-08-24T04:19:21.841Z,14.23
2017-08-24T04:21:49.304Z,14.83
2017-08-24T04:24:16.744Z,14.90
2017-08-24T04:26:44.183Z,16.00
2017-08-24T04:29:11.618Z,14.20
2017-08-24T04:31:39.064Z,15.03
2017-08-24T04:34:06.500Z,15.90
2017-08-24T04:36:33.990Z,14.73
2017-08-24T04:39:01.432Z,13.50
2017-08-24T04:41:28.864Z,13.63
2017-08-24T04:43:56.309Z,16.40
2017-08-24T04:46:23.745Z,14.00
2017-08-24T04:48:51.185Z,14.27
2017-08-24T04:51:18.745Z,14.13
2017-08-24T04:53:46.248Z,14.20
2017-08-24T04:56:13.684Z,12.50
2017-08-24T04:58:41.132Z,12.70
2017-08-24T05:01:08.569Z,12.23
2017-08-24T05:03:36.005Z,12.60
2017-08-24T05:06:03.447Z,12.63
2017-08-24T05:08:30.888Z,12.03
2017-08-24T05:10:58.317Z,11.47
2017-08-24T05:13:26.744Z,13.70
2017-08-24T05:15:54.176Z,13.23
2017-08-24T05:18:21.617Z,11.70
2017-08-24T05:20:49.086Z,13.00
2017-08-24T05:23:16.529Z,11.57
2017-08-24T05:25:43.961Z,13.67
2017-08-24T05:28:11.412Z,12.17
2017-08-24T05:30:38.846Z,13.10
2017-08-24T05:33:06.286Z,14.50
2017-08-24T05:35:33.717Z,12.57
2017-08-24T05:38:01.173Z,13.70
2017-08-24T05:40:28.645Z,12.20
2017-08-24T05:42:56.099Z,12.97
2017-08-24T05:45:23.533Z,13.60
2017-08-24T05:47:50.977Z,12.50
2017-08-24T05:50:18.421Z,10.63
2017-08-24T05:52:45.860Z,11.87
2017-08-24T05:55:13.305Z,13.97
2017-08-24T05:57:40.742Z,14.57
2017-08-24T06:00:08.209Z,11.07
2017-08-24T06:02:35.645Z,13.33
2017-08-24T06:05:03.088Z,11.60
2017-08-24T06:07:30.519Z,14.27
2017-08-24T06:09:57.963Z,16.40
2017-08-24T06:12:25.397Z,16.83
2017-08-24T06:14:52.832Z,12.70
2017-08-24T06:17:20.277Z,14.13
2017-08-24T06:19:47.786Z,15.10
2017-08-24T06:22:15.205Z,13.43
2017-08-24T06:24:42.674Z,12.53
2017-08-24T06:27:10.128Z,14.30
2017-08-24T06:29:37.564Z,13.27
2017-08-24T06:32:05.068Z,14.57
2017-08-24T06:34:32.521Z,15.17
2017-08-24T06:36:59.941Z,13.90
2017-08-24T06:39:27.377Z,14.80
2017-08-24T06:41:54.820Z,14.77
2017-08-24T06:44:22.268Z,12.47
2017-08-24T06:46:49.701Z,13.10
2017-08-24T06:49:17.144Z,11.70
2017-08-24T06:51:44.583Z,13.10
2017-08-24T06:54:12.021Z,13.43
2017-08-24T06:56:39.470Z,11.60
2017-08-24T06:59:06.897Z,14.20
2017-08-24T07:01:34.339Z,12.30
2017-08-24T07:04:01.797Z,13.13
2017-08-24T07:06:29.236Z,12.40
2017-08-24T07:08:56.670Z,12.10
2017-08-24T07:11:24.114Z,9.60
2017-08-24T07:13:51.559Z,10.27
2017-08-24T07:16:18.992Z,8.83
2017-08-24T07:18:46.424Z,12.63
2017-08-24T07:21:13.927Z,11.77
2017-08-24T07:23:41.358Z,8.70
2017-08-24T07:26:08.809Z,10.30
2017-08-24T07:28:36.237Z,9.70
2017-08-24T07:31:03.681Z,8.83
2017-08-24T07:33:31.113Z,11.10
2017-08-24T07:35:58.563Z,10.13
2017-08-24T07:38:25.991Z,8.10
2017-08-24T07:40:53.435Z,10.13
2017-08-24T07:43:20.870Z,10.00
2017-08-24T07:45:48.308Z,9.40
2017-08-24T07:48:15.745Z,9.60
2017-08-24T07:50:43.189Z,9.50
2017-08-24T07:53:10.621Z,9.20
2017-08-24T07:55:38.056Z,8.87
2017-08-24T07:58:05.493Z,9.53
2017-08-24T08:00:32.933Z,8.20
2017-08-24T08:03:00.373Z,7.60
2017-08-24T08:05:27.809Z,7.57
2017-08-24T08:07:55.233Z,6.87
2017-08-24T08:10:22.668Z,7.17
2017-08-24T08:12:50.102Z,6.60
2017-08-24T08:15:17.533Z,6.93
2017-08-24T08:17:44.966Z,6.30
2017-08-24T08:20:12.397Z,7.40
2017-08-24T08:22:39.827Z,6.37
2017-08-24T08:25:07.263Z,6.17
2017-08-24T08:27:34.696Z,6.50
2017-08-24T08:30:02.129Z,6.50
2017-08-24T08:32:29.565Z,6.00
2017-08-24T08:34:57.001Z,7.00
2017-08-24T08:37:24.437Z,6.60
2017-08-24T08:39:51.877Z,6.63
2017-08-24T08:42:19.308Z,6.00
2017-08-24T08:44:46.774Z,5.40
2017-08-24T08:47:16.112Z,5.10
2017-08-24T08:49:43.545Z,6.30
2017-08-24T08:52:10.985Z,4.73
2017-08-24T08:54:38.419Z,4.77
2017-08-24T08:57:05.853Z,4.97
2017-08-24T08:59:33.286Z,3.03
2017-08-24T09:02:00.720Z,3.57
2017-08-24T09:04:28.156Z,2.60
2017-08-24T09:06:55.608Z,1.80
2017-08-24T09:09:23.035Z,1.60
2017-08-24T09:11:50.466Z,1.80
2017-08-24T09:14:17.902Z,1.30
2017-08-24T09:16:45.345Z,1.87
2017-08-24T09:19:12.785Z,1.90
2017-08-24T09:21:40.204Z,1.10
2017-08-24T09:24:07.635Z,1.33
2017-08-24T09:26:35.070Z,1.30
2017-08-24T09:29:02.497Z,1.47
2017-08-24T09:31:30.604Z,1.00
2017-08-24T09:33:58.041Z,1.50
2017-08-24T09:36:25.462Z,1.27
2017-08-24T09:38:52.896Z,1.10
2017-08-24T09:41:20.325Z,1.47
2017-08-24T09:43:47.748Z,1.27
2017-08-24T09:46:15.176Z,1.50
2017-08-24T09:48:42.672Z,1.23
2017-08-24T09:51:10.104Z,1.27
2017-08-24T09:53:37.532Z,1.20
2017-08-24T09:56:05.947Z,1.47
2017-08-24T09:58:33.383Z,1.30
2017-08-24T10:01:00.806Z,1.20
2017-08-24T10:03:28.243Z,1.20
2017-08-24T10:05:55.668Z,1.20
2017-08-24T10:08:23.093Z,0.90
2017-08-24T10:10:50.544Z,1.10
2017-08-24T10:13:17.976Z,1.43
2017-08-24T10:15:45.425Z,1.27
2017-08-24T10:18:12.856Z,1.17
2017-08-24T10:20:40.300Z,1.20
2017-08-24T10:23:08.545Z,1.20
2017-08-24T10:25:35.990Z,1.20
2017-08-24T10:28:03.434Z,1.20
2017-08-24T10:30:30.898Z,1.37
2017-08-24T10:32:58.297Z,1.47
2017-08-24T10:35:25.727Z,1.50
2017-08-24T10:37:53.167Z,1.33
2017-08-24T10:40:20.672Z,1.27
2017-08-24T10:42:48.111Z,1.80
2017-08-24T10:45:15.603Z,1.50
2017-08-24T10:47:43.042Z,1.83
2017-08-24T10:50:10.472Z,2.20
2017-08-24T10:52:37.957Z,2.10
2017-08-24T10:55:05.390Z,1.50
2017-08-24T10:57:32.827Z,1.57
2017-08-24T11:00:00.253Z,1.73
2017-08-24T11:02:27.693Z,2.00
2017-08-24T11:04:55.116Z,2.20
2017-08-24T11:07:22.597Z,1.90
2017-08-24T11:09:50.027Z,1.97
2017-08-24T11:12:17.457Z,1.83
2017-08-24T11:14:44.897Z,1.87
2017-08-24T11:17:12.320Z,1.93
2017-08-24T11:19:39.757Z,1.50
2017-08-24T11:22:07.184Z,1.30
2017-08-24T11:24:34.617Z,1.67
2017-08-24T11:27:04.095Z,1.83
2017-08-24T11:29:31.536Z,1.90
2017-08-24T11:31:58.964Z,1.40
2017-08-24T11:34:26.396Z,1.67
2017-08-24T11:36:53.827Z,2.00
2017-08-24T11:39:21.273Z,1.70
2017-08-24T11:42:09.897Z,1.40
2017-08-24T11:44:38.124Z,1.80
2017-08-24T11:47:05.617Z,1.97
2017-08-24T11:49:33.134Z,1.63
2017-08-24T11:52:00.557Z,1.63
2017-08-24T11:54:28.042Z,1.43
2017-08-24T11:56:55.455Z,1.80
2017-08-24T11:59:22.884Z,1.50
2017-08-24T12:01:50.576Z,1.93
2017-08-24T12:04:20.136Z,1.70
2017-08-24T12:06:47.596Z,1.30
2017-08-24T12:09:15.057Z,1.83
2017-08-24T12:11:43.466Z,1.50
2017-08-24T12:14:10.889Z,1.70
2017-08-24T12:16:38.322Z,1.60
2017-08-24T12:19:05.744Z,1.70
2017-08-24T12:21:33.189Z,1.90
2017-08-24T12:24:00.616Z,2.07
2017-08-24T12:26:28.059Z,1.90
2017-08-24T12:28:55.479Z,1.50
2017-08-24T12:31:22.922Z,2.10
2017-08-24T12:33:52.372Z,2.10
2017-08-24T12:36:19.804Z,1.40
2017-08-24T12:38:47.241Z,1.50
2017-08-24T12:41:14.673Z,1.40
2017-08-24T12:43:42.100Z,1.77
2017-08-24T12:46:09.538Z,1.73
2017-08-24T12:48:36.958Z,1.50
2017-08-24T12:51:04.407Z,1.73
2017-08-24T12:53:31.821Z,1.80
2017-08-24T12:55:59.269Z,1.23
2017-08-24T12:58:26.700Z,1.40
2017-08-24T13:00:54.190Z,1.50
2017-08-24T13:03:22.681Z,1.63
2017-08-24T13:05:50.103Z,2.10
2017-08-24T13:08:17.552Z,1.33
2017-08-24T13:10:44.987Z,1.63
2017-08-24T13:13:12.420Z,1.70
2017-08-24T13:15:39.858Z,2.07
2017-08-24T13:18:07.310Z,2.00
2017-08-24T13:20:34.750Z,1.37
2017-08-24T13:23:02.177Z,2.00
2017-08-24T13:25:29.615Z,1.83
2017-08-24T13:27:57.040Z,1.50
2017-08-24T13:30:24.474Z,1.70
2017-08-24T13:32:51.902Z,1.73
2017-08-24T13:35:19.328Z,1.70
2017-08-24T13:37:46.760Z,1.47
2017-08-24T13:40:14.201Z,1.67
2017-08-24T13:42:41.629Z,1.93
2017-08-24T13:45:09.064Z,1.37
2017-08-24T13:47:36.492Z,2.27
2017-08-24T13:50:03.957Z,1.63
2017-08-24T13:52:31.377Z,2.37
2017-08-24T13:54:58.802Z,1.70
2017-08-24T13:57:26.233Z,1.70
2017-08-24T13:59:53.657Z,2.30
2017-08-24T14:02:21.089Z,1.63
2017-08-24T14:04:48.517Z,2.10
2017-08-24T14:07:15.955Z,1.20
2017-08-24T14:09:43.376Z,1.57
2017-08-24T14:12:10.817Z,2.07
2017-08-24T14:14:38.312Z,1.20
2017-08-24T14:17:05.744Z,1.37
2017-08-24T14:19:33.181Z,1.63
2017-08-24T14:22:00.620Z,1.10
2017-08-24T14:24:28.045Z,2.10
2017-08-24T14:26:55.500Z,1.70
2017-08-24T14:29:22.924Z,1.10
2017-08-24T14:31:50.361Z,1.67
2017-08-24T14:34:17.779Z,1.53
2017-08-24T14:36:45.211Z,1.40
2017-08-24T14:39:12.636Z,2.47
2017-08-24T14:41:40.072Z,1.40
2017-08-24T14:44:07.500Z,1.10
2017-08-24T14:46:34.933Z,1.30
2017-08-24T14:49:02.361Z,1.43
2017-08-24T14:51:29.792Z,1.43
2017-08-24T14:53:57.236Z,1.50
2017-08-24T14:56:24.675Z,1.40
2017-08-24T14:58:52.105Z,1.20
2017-08-24T15:01:19.540Z,1.43
2017-08-24T15:03:47.053Z,1.53
2017-08-24T15:06:14.481Z,1.60
2017-08-24T15:08:41.918Z,1.53
2017-08-24T15:11:11.365Z,1.57
2017-08-24T15:13:38.801Z,1.70
2017-08-24T15:16:06.228Z,1.20
2017-08-24T15:18:33.665Z,1.40
2017-08-24T15:21:01.088Z,1.67
2017-08-24T15:23:28.516Z,1.60
2017-08-24T15:25:55.959Z,1.33
2017-08-24T15:28:23.376Z,1.47
2017-08-24T15:30:50.812Z,1.40
2017-08-24T15:33:18.248Z,1.33
2017-08-24T15:35:45.668Z,1.60
2017-08-24T15:38:13.120Z,1.60
2017-08-24T15:40:40.614Z,1.17
2017-08-24T15:43:08.051Z,1.60
2017-08-24T15:45:35.492Z,1.30
2017-08-24T15:48:02.920Z,1.30
2017-08-24T15:50:30.358Z,1.63
2017-08-24T15:52:57.783Z,1.20
2017-08-24T15:55:25.223Z,1.40
2017-08-24T15:57:52.663Z,1.27
2017-08-24T16:00:20.104Z,1.20
2017-08-24T16:02:47.528Z,1.20
2017-08-24T16:05:15.943Z,0.90
2017-08-24T16:07:43.408Z,1.60
2017-08-24T16:10:10.833Z,1.63
2017-08-24T16:12:38.270Z,1.53
2017-08-24T16:15:05.711Z,1.10
2017-08-24T16:17:33.136Z,1.90
2017-08-24T16:20:03.716Z,1.40
2017-08-24T16:22:31.154Z,1.70
2017-08-24T16:24:58.588Z,1.33
2017-08-24T16:27:26.019Z,1.10
2017-08-24T16:29:53.503Z,1.23
2017-08-24T16:32:20.931Z,1.57
2017-08-24T16:34:50.332Z,1.43
2017-08-24T16:37:17.765Z,1.40
2017-08-24T16:39:45.196Z,1.43
2017-08-24T16:42:12.634Z,1.40
2017-08-24T16:44:40.056Z,1.20
2017-08-24T16:47:08.446Z,1.57
2017-08-24T16:49:35.871Z,1.30
2017-08-24T16:52:03.462Z,1.73
2017-08-24T16:54:30.870Z,1.40
2017-08-24T16:56:58.308Z,1.13
2017-08-24T16:59:25.737Z,1.37
2017-08-24T17:01:53.176Z,1.13
2017-08-24T17:04:20.615Z,1.60
2017-08-24T17:06:48.044Z,1.17
2017-08-24T17:09:15.476Z,2.00
2017-08-24T17:11:42.909Z,1.00
2017-08-24T17:14:10.340Z,1.10
2017-08-24T17:16:37.819Z,1.10
2017-08-24T17:19:05.265Z,1.40
2017-08-24T17:21:32.680Z,1.40
2017-08-24T17:24:00.123Z,1.43
2017-08-24T17:26:27.550Z,1.07
2017-08-24T17:28:54.981Z,1.53
2017-08-24T17:31:22.414Z,1.47
2017-08-24T17:33:49.845Z,1.57
2017-08-24T17:36:17.269Z,1.70
2017-08-24T17:38:44.696Z,1.37
2017-08-24T17:41:12.184Z,1.30
2017-08-24T17:43:39.623Z,2.07
2017-08-24T17:46:07.111Z,1.90
2017-08-24T17:48:35.370Z,1.43
2017-08-24T17:51:02.793Z,2.37
2017-08-24T17:53:30.225Z,1.40
2017-08-24T17:55:57.657Z,1.73
2017-08-24T17:58:25.090Z,2.40
2017-08-24T18:00:52.529Z,1.30
2017-08-24T18:03:19.957Z,1.37
2017-08-24T18:05:47.469Z,1.47
2017-08-24T18:08:14.919Z,1.60
2017-08-24T18:10:42.329Z,1.50
2017-08-24T18:13:09.760Z,1.27
2017-08-24T18:15:37.180Z,1.37
2017-08-24T18:18:04.616Z,1.30
2017-08-24T18:20:32.044Z,1.50
2017-08-24T18:22:59.477Z,2.33
2017-08-24T18:25:26.908Z,1.20
2017-08-24T18:27:54.336Z,1.40
2017-08-24T18:30:21.772Z,2.20
2017-08-24T18:32:51.245Z,2.30
2017-08-24T18:35:18.700Z,3.33
2017-08-24T18:37:46.124Z,4.00
2017-08-24T18:40:13.567Z,5.30
2017-08-24T18:42:40.992Z,4.80
2017-08-24T18:45:08.424Z,5.00
2017-08-24T18:47:35.844Z,3.30
2017-08-24T18:50:03.304Z,2.10
2017-08-24T18:52:30.716Z,2.10
2017-08-24T18:54:58.144Z,2.00
2017-08-24T18:57:25.569Z,1.73
2017-08-24T18:59:53.001Z,1.47
2017-08-24T19:02:20.421Z,1.70
2017-08-24T19:04:47.856Z,1.63
2017-08-24T19:07:15.288Z,1.90
2017-08-24T19:09:42.729Z,1.60
2017-08-24T19:12:10.156Z,1.43
2017-08-24T19:14:37.588Z,1.53
2017-08-24T19:17:05.017Z,1.67
2017-08-24T19:19:32.515Z,1.57
2017-08-24T19:22:00.999Z,1.53
2017-08-24T19:24:28.429Z,1.30
2017-08-24T19:26:55.854Z,2.13
2017-08-24T19:29:23.285Z,1.80
2017-08-24T19:31:50.731Z,1.70
2017-08-24T19:34:18.148Z,1.57
2017-08-24T19:36:45.578Z,1.93
2017-08-24T19:39:13.004Z,1.80
2017-08-24T19:41:40.432Z,1.50
2017-08-24T19:44:07.861Z,1.63
2017-08-24T19:46:35.364Z,2.40
2017-08-24T19:49:02.788Z,1.70
2017-08-24T19:51:30.216Z,2.30
2017-08-24T19:53:57.641Z,1.80
2017-08-24T19:56:25.072Z,1.50
2017-08-24T19:58:52.548Z,1.50
2017-08-24T20:01:19.981Z,1.83
2017-08-24T20:03:47.426Z,1.70
2017-08-24T20:06:14.848Z,1.77
2017-08-24T20:08:42.273Z,1.90
2017-08-24T20:11:09.710Z,2.30
2017-08-24T20:13:37.125Z,2.50
2017-08-24T20:16:04.562Z,2.43
2017-08-24T20:18:31.979Z,1.80
2017-08-24T20:20:59.413Z,3.07
2017-08-24T20:23:26.841Z,2.43
2017-08-24T20:25:54.276Z,2.40
2017-08-24T20:28:21.700Z,2.90
2017-08-24T20:30:49.140Z,2.23
2017-08-24T20:33:16.558Z,2.47
2017-08-24T20:35:43.984Z,3.00
2017-08-24T20:38:11.408Z,3.33
2017-08-24T20:40:38.876Z,3.27
2017-08-24T20:43:06.308Z,3.77
2017-08-24T20:45:33.749Z,3.20
2017-08-24T20:48:01.164Z,2.63
2017-08-24T20:50:28.751Z,2.90
2017-08-24T20:52:57.605Z,2.90
2017-08-24T20:55:25.070Z,2.97
2017-08-24T20:57:52.483Z,3.57
2017-08-24T21:00:19.910Z,2.90
2017-08-24T21:02:47.331Z,2.93
2017-08-24T21:05:14.764Z,3.10
2017-08-24T21:07:42.201Z,3.20
2017-08-24T21:10:09.624Z,3.30
2017-08-24T21:12:37.056Z,4.03
2017-08-24T21:15:04.501Z,3.67
2017-08-24T21:17:31.933Z,4.23
2017-08-24T21:19:59.364Z,3.27
2017-08-24T21:22:26.789Z,3.50
2017-08-24T21:24:54.231Z,4.07
2017-08-24T21:27:21.675Z,3.53
2017-08-24T21:29:49.104Z,3.00
2017-08-24T21:32:16.532Z,3.87
2017-08-24T21:34:43.987Z,3.47
2017-08-24T21:37:11.417Z,6.30
2017-08-24T21:39:38.844Z,3.60
2017-08-24T21:42:06.285Z,3.70
2017-08-24T21:44:33.709Z,3.40
2017-08-24T21:47:01.140Z,2.67
2017-08-24T21:49:28.565Z,2.87
2017-08-24T21:51:55.996Z,3.23
2017-08-24T21:54:23.420Z,2.50
2017-08-24T21:56:50.856Z,2.60
2017-08-24T21:59:18.768Z,3.50
2017-08-24T22:01:46.252Z,2.20
2017-08-24T22:04:13.684Z,3.10
2017-08-24T22:06:41.105Z,3.03
2017-08-24T22:09:09.079Z,2.70
2017-08-24T22:11:36.496Z,3.07
2017-08-24T22:14:03.928Z,3.93
2017-08-24T22:16:31.357Z,3.20
2017-08-24T22:18:58.788Z,2.73
2017-08-24T22:21:26.212Z,3.70
2017-08-24T22:23:53.648Z,3.37
2017-08-24T22:26:21.069Z,2.60
2017-08-24T22:28:48.492Z,3.40
2017-08-24T22:31:15.925Z,2.90
2017-08-24T22:33:43.345Z,3.00
2017-08-24T22:36:10.786Z,3.30
2017-08-24T22:38:38.201Z,2.30
2017-08-24T22:41:05.630Z,3.30
2017-08-24T22:43:33.053Z,2.43
2017-08-24T22:46:00.764Z,3.30
2017-08-24T22:48:28.169Z,3.60
2017-08-24T22:50:55.620Z,3.33
2017-08-24T22:53:28.796Z,3.30
2017-08-24T22:56:01.865Z,2.93
2017-08-24T22:58:35.048Z,2.77
2017-08-24T23:01:08.121Z,2.70
2017-08-24T23:03:41.316Z,3.50
2017-08-24T23:06:08.752Z,3.57
2017-08-24T23:08:36.177Z,3.10
2017-08-24T23:11:03.600Z,3.10
2017-08-24T23:13:31.033Z,3.17
2017-08-24T23:15:58.465Z,3.13
2017-08-24T23:18:26.888Z,2.87
2017-08-24T23:20:54.313Z,3.40
2017-08-24T23:23:22.278Z,2.73
2017-08-24T23:25:49.769Z,3.47
2017-08-24T23:28:17.204Z,3.07
2017-08-24T23:30:44.637Z,3.23
2017-08-24T23:33:12.074Z,4.00
2017-08-24T23:35:39.492Z,4.10
2017-08-24T23:38:06.929Z,3.63
2017-08-24T23:40:34.365Z,2.93
2017-08-24T23:43:01.792Z,2.90
2017-08-24T23:45:29.224Z,3.07
2017-08-24T23:47:56.652Z,3.90
2017-08-24T23:50:24.087Z,3.53
2017-08-24T23:52:51.588Z,3.83
2017-08-24T23:55:19.021Z,3.63
2017-08-24T23:57:46.436Z,3.33
